Weather observations for the past three days for
Andrews-Murphy Airport
Imperial (Metric)
Date Time (edt) Wind (mph) Vis. (mi.) Weather Sky Cond. Temperature (ºF) Relative Humidity Wind Chill (°F) Heat Index (°F) Pressure Precipitation (in)
Air Dwpt 6 hour altimeter (in) sea level (mb) 1 hr 3 hr 6 hr
Max. Min.
10 08:15 Calm 10.00 Fair CLR 54.7 53.2 95% 30.09 0.0
10 07:55 Calm 10.00 Fair CLR 53.1 51.8 53.1 48.4 96% 30.09 0.0
10 07:35 Calm 10.00 Partly Cloudy SCT017 52 50.9 96% 30.07 0.0
10 07:15 Calm 10.00 Mostly Cloudy BKN017 50.9 49.6 95% 30.06 0.0
10 06:55 Calm 10.00 Overcast OVC017 50.2 49.1 96% 30.06 0.0
10 06:35 Calm 7.00 Overcast OVC017 50 48.7 95% 30.05 0.0
10 06:15 Calm 5.00 Fog/Mist OVC017 50 48.7 95% 30.04 0.0
10 05:55 Calm 0.50 Fog OVC002 50 48.7 95% 30.04 0.0
10 05:35 Calm 5.00 Fog/Mist BKN002 BKN017 49.3 48.2 96% 30.04 0.0
10 05:15 Calm 0.25 Fog OVC002 48.7 47.5 95% 30.03 0.0
10 04:55 Calm 0.50 Fog OVC002 49.3 48 95% 30.02 0.0
10 04:35 Calm 0.25 Fog OVC002 49.5 48.2 95% 30.02 0.0
10 04:15 Calm 1.50 Fog/Mist OVC002 49.8 48.6 95% 30.01 0.0
10 03:55 Calm 10.00 Fair CLR 49.3 47.8 95% 30 0.0
10 03:35 Calm 3.00 Fog/Mist CLR 50.5 48.9 94% 30 0.0
10 03:15 Calm 10.00 Partly Cloudy SCT002 50.2 48.6 94% 29.99 0.0
10 02:55 Calm 4.00 Fog/Mist SCT002 51.1 49.6 95% 29.99 0.0
10 02:35 Calm 10.00 Partly Cloudy SCT047 51.8 50 94% 29.99 0.0
10 02:15 Calm 4.00 Fog/Mist SCT047 52.3 50.5 94% 29.99 0.0
10 01:55 Calm 7.00 Fair CLR 52.9 50.9 65.5 52.7 93% 29.99 0.0
10 01:35 Calm 10.00 Fair CLR 52.7 50.4 92% 30 0.0
10 01:15 Calm 10.00 Fair CLR 53.8 51.6 92% 30.01 0.0
10 00:55 Calm 10.00 Fair CLR 54.5 51.8 91% 30.01 0.0
10 00:35 Calm 10.00 Fair CLR 54.1 51.1 89% 30.01 0.0
10 00:15 Calm 10.00 Fair CLR 55.9 52.5 88% 30 0.0
09 23:55 Calm 10.00 Fair CLR 56.7 52.5 86% 30 0.0
09 23:35 Calm 10.00 Fair CLR 56.8 52.5 86% 29.99 0.0
09 23:15 Calm 10.00 Partly Cloudy SCT041 57.9 53.6 86% 29.99 0.0
09 22:55 Calm 10.00 Fair CLR 58.3 53.2 83% 29.99 0.0
09 22:35 Calm 10.00 Fair CLR 58.8 53.4 82% 29.98 0.0
09 22:15 Calm 10.00 Partly Cloudy SCT050 SCT070 59.9 53.8 80% 29.98 0.0
09 21:55 Calm 10.00 Mostly Cloudy SCT042 SCT050 BKN070 60.1 54 80% 29.97 0.0
09 21:35 Calm 10.00 Overcast SCT042 BKN050 OVC070 60.4 54 79% 29.97 0.0
09 21:15 Calm 10.00 Mostly Cloudy SCT050 BKN065 61.5 53.8 76% 29.95 0.0
09 20:55 Calm 10.00 Partly Cloudy SCT065 61.7 54 76% 29.94 0.0
09 20:35 Calm 10.00 Partly Cloudy SCT065 63 54.1 73% 29.93 0.0
09 20:15 Calm 10.00 Mostly Cloudy BKN065 64.4 54.5 70% 29.93 0.0
09 19:55 Calm 10.00 Mostly Cloudy BKN065 66.9 53.6 74.8 66.9 62% 29.92 0.0
09 19:35 W 5 10.00 Mostly Cloudy BKN065 68.5 52.9 58% 29.91 0.0
09 19:15 SW 5 10.00 Overcast OVC065 69.8 51.8 53% 29.91 0.0
09 18:55 W 7 10.00 Overcast OVC065 71.2 50.2 47% 29.89 0.0
09 18:35 SW 8 10.00 Mostly Cloudy BKN060 72 51.8 49% 29.89 0.0
09 18:15 W 9 10.00 Partly Cloudy SCT060 71.2 52.5 52% 29.89 0.0
09 17:55 W 9 10.00 Fair CLR 72.5 51.3 47% 29.89 0.0
09 17:35 W 14 G 17 10.00 Fair CLR 72.1 49.5 45% 29.89 0.0
09 17:15 W 12 10.00 Fair CLR 72.9 48.4 42% 29.88 0.0
09 16:55 W 12 10.00 Fair CLR 73.8 51.4 46% 29.87 0.0
09 16:35 SW 10 10.00 Fair CLR 73.8 51.4 46% 29.87 0.0
09 16:15 SW 12 G 16 10.00 Fair CLR 73.6 50.9 45% 29.87 0.0
09 15:55 SW 10 G 18 10.00 Fair CLR 73.8 50.5 44% 29.87 0.0
09 15:35 SW 10 G 16 10.00 Fair CLR 74.1 50.4 43% 29.87 0.0
09 15:15 SW 12 10.00 Fair CLR 74.3 50.5 43% 29.88 0.0
09 14:55 SW 13 G 18 10.00 Fair CLR 74.1 49.6 42% 29.88 0.0
09 14:35 SW 9 10.00 Fair CLR 74.3 51.1 44% 29.88 0.0
09 14:15 SW 8 10.00 Fair CLR 72.1 51.1 48% 29.88 0.0
09 13:55 W 10 G 16 10.00 Fair CLR 72.1 52.2 72.3 50 50% 29.89 0.0
09 13:35 SW 8 10.00 Fair CLR 70.5 52.3 53% 29.9 0.0
09 13:15 SW 7 10.00 Fair CLR 70 51.1 51% 29.91 0.0
09 12:55 SW 10 10.00 Fair CLR 68.7 51.8 55% 29.92 0.0
09 12:35 SW 7 10.00 Partly Cloudy SCT030 68 51.8 56% 29.93 0.0
09 12:15 SW 8 10.00 Partly Cloudy SCT026 SCT036 67.3 51.3 57% 29.94 0.0
09 11:55 SW 9 10.00 Partly Cloudy SCT026 66.7 52.9 61% 29.94 0.0
09 11:15 SW 7 10.00 Partly Cloudy SCT034 63.9 53.1 68% 29.94 0.0
09 10:55 SW 8 10.00 Partly Cloudy BKN034 SCT041 62.8 53.8 73% 29.94 0.0
09 10:35 Calm 10.00 Mostly Cloudy BKN032 61.3 53.4 75% 29.93 0.0
09 10:15 Calm 10.00 Mostly Cloudy SCT021 BKN034 58.1 53.1 83% 29.92 0.0
09 09:55 Calm 10.00 Overcast BKN021 OVC038 55.6 52 88% 29.93 0.0
09 09:35 Calm 10.00 Overcast OVC021 53.4 50.7 91% 29.93 0.0
09 09:15 Calm 10.00 Overcast OVC023 51.8 49.5 92% 29.93 0.0
09 08:55 Calm 10.00 Overcast OVC023 50.9 49.1 94% 29.93 0.0
09 08:35 Calm 10.00 Overcast OVC025 50.5 48.6 93% 29.93 0.0
09 08:15 Calm 10.00 Overcast OVC025 50.2 48.6 94% 29.93 0.0
09 07:55 Calm 10.00 Overcast OVC027 50 48.4 50 44.8 94% 29.93 0.0
09 07:35 Calm 10.00 Overcast OVC029 49.5 48.2 95% 29.93 0.0
09 07:15 Calm 10.00 Overcast OVC029 48.7 47.5 95% 29.94 0.0
09 06:55 Calm 10.00 Overcast OVC027 48.2 46.8 95% 29.94 0.0
09 06:35 Calm 10.00 Overcast OVC027 47.8 46.6 95% 29.93 0.0
09 06:15 Calm 10.00 Overcast BKN029 OVC075 47.5 46.4 96% 29.93 0.0
09 05:55 Calm 10.00 Overcast BKN029 OVC075 46.9 45.7 95% 29.92 0.0
09 05:35 Calm 10.00 Overcast OVC031 46.8 45.5 95% 29.94 0.0
09 05:15 Calm 10.00 Overcast SCT031 OVC075 45.9 44.6 95% 29.94 0.0
09 04:55 Calm 10.00 Mostly Cloudy BKN075 45.3 44.1 95% 29.93 0.0
09 04:35 Calm 10.00 Partly Cloudy SCT075 SCT090 45.5 44.1 95% 29.93 0.0
09 04:15 Calm 7.00 Fair CLR 45.7 44.4 95% 29.92 0.0
09 03:55 Calm 7.00 Fair CLR 46.4 45 95% 29.92 0.0
09 03:35 Calm 10.00 Fair CLR 46.4 45 95% 29.93 0.0
09 03:15 Calm 10.00 Fair CLR 45.9 44.1 93% 29.94 0.0
09 02:55 Calm 10.00 Fair CLR 46.4 44.8 94% 29.94 0.0
09 02:35 Calm 10.00 Fair CLR 46.9 45.1 94% 29.95 0.0
09 02:15 Calm 10.00 Fair CLR 47.3 45.3 93% 29.95 0.0
09 01:55 Calm 10.00 Fair CLR 47.8 45.7 63.9 47.8 92% 29.96 0.0
09 01:35 Calm 10.00 Fair CLR 48.2 45.7 91% 29.97 0.0
09 01:15 Calm 10.00 Fair CLR 48.6 46.2 92% 29.97 0.0
09 00:55 Calm 10.00 Fair CLR 49.3 46.2 89% 29.98 0.0
09 00:35 Calm 10.00 Fair CLR 50 46.9 89% 29.98 0.0
09 00:15 Calm 10.00 Fair CLR 50.4 47.3 89% 29.98 0.0
08 23:55 Calm 10.00 Fair CLR 51.1 47.8 89% 29.98 0.0
08 23:35 Calm 10.00 Fair CLR 51.1 47.7 88% 29.99 0.0
08 23:15 Calm 10.00 Fair CLR 51.6 47.7 86% 29.99 0.0
08 22:55 Calm 10.00 Fair CLR 52.3 48 85% 30 0.0
08 22:35 Calm 10.00 Fair CLR 53.1 48.4 84% 29.99 0.0
08 22:15 Calm 10.00 Fair CLR 54.9 49.1 81% 29.99 0.0
08 21:55 Calm 10.00 Fair CLR 55 49.1 81% 29.98 0.0
08 21:35 Calm 10.00 Fair CLR 56.7 49.3 76% 29.98 0.0
08 21:15 Calm 10.00 Fair CLR 57.9 49.3 73% 29.97 0.0
08 20:55 W 5 10.00 Fair CLR 59.9 49.1 68% 29.97 0.0
08 20:35 Calm 10.00 Fair CLR 61.7 47.5 60% 29.97 0.0
08 20:15 SW 6 10.00 Fair CLR 63 47.7 58% 29.97 0.0
08 19:55 SW 6 10.00 Fair CLR 64.4 47.3 71.1 64.4 54% 29.96 0.0
08 19:35 SW 5 10.00 Fair CLR 64.9 47.3 53% 29.95 0.0
08 19:15 SW 6 10.00 Fair CLR 65.8 46.9 51% 29.95 0.0
08 18:55 SW 9 10.00 Fair CLR 66.7 47.7 50% 29.96 0.0
08 18:35 SW 6 10.00 Fair CLR 67.6 46.8 47% 29.94 0.0
08 18:15 SW 9 10.00 Fair CLR 68.9 46 44% 29.95 0.0
08 17:55 W 9 10.00 Fair CLR 68.9 45 42% 29.94 0.0
08 17:35 W 8 10.00 Fair CLR 68.9 41.5 37% 29.94 0.0
08 17:15 W 9 10.00 Fair CLR 70.2 41.4 35% 29.95 0.0
08 16:55 W 7 10.00 Fair CLR 69.8 43.2 38% 29.95 0.0
08 16:35 W 12 10.00 Fair CLR 69.8 44.8 41% 29.95 0.0
08 16:15 W 8 10.00 Fair CLR 70.2 43.7 39% 29.96 0.0
08 15:55 W 8 10.00 Fair CLR 70.3 39.6 33% 29.96 0.0
08 15:35 SW 8 10.00 Fair CLR 70.5 40.6 34% 29.97 0.0
08 15:15 W 9 10.00 Fair CLR 69.8 43.3 39% 29.98 0.0
08 14:35 SW 6 G 16 10.00 Fair CLR 69.3 41.7 37% 30 0.0
08 14:15 SW 12 G 18 10.00 Fair CLR 69.3 41.7 37% 30.01 0.0
08 13:55 W 14 G 17 10.00 Fair CLR 69.3 41.5 69.3 44.1 37% 30.01 0.0
08 13:15 W 9 10.00 Fair CLR 66.6 44.2 45% 30.02 0.0
08 12:55 W 8 10.00 Fair CLR 65.7 44.6 47% 30.04 0.0
08 12:35 W 6 10.00 Fair CLR 64.2 45.3 50% 30.04 0.0
08 12:15 NW 7 10.00 Fair CLR 63.5 43.3 48% 30.06 0.0
08 11:55 W 9 10.00 Fair CLR 63 44.2 51% 30.07 0.0
08 11:35 W 6 10.00 Fair CLR 61.7 45 54% 30.07 0.0
08 11:15 SW 7 10.00 Fair CLR 61.3 43.7 53% 30.07 0.0
08 10:55 W 6 10.00 Fair CLR 59.9 41.7 51% 30.08 0.0
08 10:35 W 5 10.00 Fair CLR 58.8 42.1 54% 30.08 0.0
08 10:15 SW 5 10.00 Fair CLR 56.3 43.2 62% 30.08 0.0
08 09:55 S 5 10.00 Fair CLR 54.3 46.6 75% 30.09 0.0
08 09:35 Calm 10.00 Fair CLR 51.4 46.9 85% 30.09 0.0
08 09:15 Calm 10.00 Fair CLR 49.3 46.6 90% 30.09 0.0
08 08:55 Calm 10.00 Fair CLR 48 46.4 94% 30.09 0.0
08 08:35 Calm 10.00 Fair CLR 45.9 44.6 95% 30.09 0.0
08 08:15 Calm 10.00 Partly Cloudy SCT002 45 43.7 95% 30.09 0.0
08 07:55 Calm 10.00 Partly Cloudy SCT002 43.7 42.4 45.1 40.8 95% 30.08 0.0
08 07:35 Calm 2.50 Fog/Mist SCT002 42.8 41.5 95% 30.07 0.0
08 07:15 Calm 10.00 Partly Cloudy SCT002 41 39.9 96% 30.07 0.0
08 06:55 Calm 0.25 Fog OVC002 41 39.6 95% 30.06 0.0
08 06:35 Calm 0.15 Fog OVC002 41.2 40.1 96% 30.04 0.0
08 06:15 Calm 0.25 Fog OVC002 41.9 40.8 96% 30.04 0.0
08 05:55 Calm 0.50 Fog OVC002 41.9 40.6 95% 30.04 0.0
08 05:35 Calm 10.00 Fair CLR 41.7 40.5 95% 30.04 0.0
08 05:15 Calm 10.00 Partly Cloudy SCT001 42.1 41 96% 30.02 0.0
08 04:55 Calm 5.00 Fog/Mist OVC001 42.8 41.5 95% 30.02 0.0
08 04:35 Calm 0.50 Fog OVC001 43.7 42.4 95% 30.03 0.0
08 04:15 Calm 0.50 Fog OVC001 44.1 42.8 95% 30.03 0.0
08 03:55 Calm 0.25 Fog OVC001 44.6 43.2 95% 30.03 0.0
08 03:35 Calm 0.15 Fog OVC001 44.6 43.3 95% 30.03 0.0
08 03:15 Calm 0.25 Fog OVC001 44.6 43.2 95% 30.02 0.0
08 02:55 Calm 0.50 Fog OVC001 45 43.5 95% 30.02 0.0
08 02:35 Calm 10.00 Mostly Cloudy BKN003 44.6 43 94% 30.03 0.0
08 02:15 Calm 10.00 Mostly Cloudy BKN003 BKN037 44.6 43.2 95% 30.02 0.0
08 01:55 Calm 10.00 Fair CLR 45 43.7 57.6 45 95% 30.02 0.0
08 01:35 Calm 10.00 Partly Cloudy SCT003 45.5 43.9 94% 30.02 0.0
08 01:15 Calm 10.00 Partly Cloudy SCT003 SCT034 45.9 44.2 94% 30.02 0.0
08 00:55 Calm 10.00 Fair CLR 46 44.1 93% 30.02 0.0
08 00:35 Calm 10.00 Fair CLR 45.9 44.1 93% 30.01 0.0
08 00:15 Calm 10.00 Fair CLR 46.4 44.6 93% 30.01 0.0
07 23:55 Calm 10.00 Fair CLR 47.3 45.3 93% 30.01 0.0
07 23:35 Calm 10.00 Fair CLR 47.3 45 92% 30.01 0.0
07 23:15 N 3 10.00 Fair CLR 47.8 45.3 91% 30.01 0.0
07 22:55 Calm 10.00 Fair CLR 48.2 45.3 90% 30.01 0.0
07 22:35 Calm 10.00 Fair CLR 49.1 46 89% 30.01 0.0
07 22:15 Calm 10.00 Fair CLR 49.6 46.4 89% 30.01 0.0
07 21:55 Calm 10.00 Fair CLR 50 46.4 88% 30 0.0
07 21:35 N 3 10.00 Fair CLR 50.9 46.9 86% 29.99 0.0
07 21:15 Calm 10.00 Fair CLR 51.1 47.3 87% 29.98 0.0
07 20:55 Calm 10.00 Fair CLR 51.8 47.5 85% 29.97 0.0
07 20:35 Calm 10.00 Fair CLR 53.2 47.8 82% 29.97 0.0
07 20:15 Calm 10.00 Fair CLR 55.4 47.7 75% 29.96 0.0
07 19:55 E 6 10.00 Fair CLR 58.6 47.3 67.1 58.6 66% 29.95 0.0
07 19:15 E 8 10.00 Partly Cloudy SCT050 61.3 45.7 57% 29.94 0.0
07 18:55 NE 5 10.00 Partly Cloudy SCT050 62.8 45.7 54% 29.94 0.0
07 18:35 N 5 10.00 Fair CLR 63 46.9 56% 29.94 0.0
07 17:55 N 10 10.00 Fair CLR 62.6 47.5 58% 29.94 0.0
07 17:35 N 6 G 9 10.00 Partly Cloudy SCT035 SCT050 63.7 48.2 57% 29.92 0.0
07 17:14 N 6 10.00 Mostly Cloudy BKN037 BKN044 BKN050 61.3 48.4 63% 29.92 0.0
07 16:55 N 9 G 16 10.00 Overcast SCT031 BKN039 OVC050 60.4 48.7 66% 29.92 0.0
07 16:35 N 10 G 16 10.00 Overcast BKN033 OVC039 62.2 50.5 66% 29.91 0.0
07 16:15 SW 7 10.00 Overcast OVC035 64.9 50.4 59% 29.89 0.0
07 15:55 S 8 G 17 10.00 Overcast OVC035 66.2 50.4 57% 29.89 0.0
07 15:35 SW 9 10.00 Overcast OVC035 66.7 52.7 61% 29.89 0.0
07 15:15 SW 12 G 16 10.00 Overcast OVC033 66.4 53.4 63% 29.89 0.0
07 14:55 S 6 10.00 Overcast OVC031 65.8 54 66% 29.89 0.0
07 14:35 SW 9 10.00 Overcast OVC029 65.8 54.3 67% 29.9 0.0
07 14:15 SW 3 10.00 Overcast BKN025 BKN029 OVC035 66.2 55.2 68% 29.9 0.0
07 13:55 Calm 10.00 Overcast BKN023 OVC030 65.3 54.9 68 59.7 69% 29.91 0.0
07 13:35 SW 5 10.00 Overcast SCT023 BKN031 OVC045 64.4 55.9 74% 29.92 0.0
07 13:15 SW 9 10.00 Overcast SCT036 OVC044 64 56.5 77% 29.92 0.0
07 12:55 SW 8 10.00 Overcast SCT017 BKN041 OVC046 64.9 57.2 76% 29.91 0.0
07 12:35 SW 12 10.00 Overcast SCT019 OVC041 66.9 57.6 72% 29.9 0.0
07 12:15 W 13 10.00 Overcast BKN038 OVC044 67.5 58.6 73% 29.89 0.0
07 11:55 W 12 10.00 Overcast SCT018 OVC040 67.6 58.3 72% 29.88 0.0
07 11:35 SW 9 10.00 Overcast SCT016 BKN029 OVC038 66.4 58.6 76% 29.88 0.0
07 11:15 SW 9 10.00 Overcast SCT014 SCT029 OVC036 64.6 58.6 81% 29.89 0.0
07 10:55 SW 10 10.00 Overcast SCT018 SCT033 OVC040 64.6 58.6 81% 29.89 0.0
07 10:35 SW 7 10.00 Overcast BKN015 BKN028 OVC044 63.9 59.4 85% 29.9 0.0
07 10:15 W 5 10.00 Mostly Cloudy BKN011 BKN024 BKN046 63.9 59.9 87% 29.89 0.0
07 09:35 Calm 10.00 Overcast SCT009 OVC015 61.7 60.1 94% 29.89 0.0
07 09:15 Calm 10.00 Overcast BKN013 OVC018 60.3 59 96% 29.88 0.0
07 08:55 Calm 10.00 Overcast BKN013 OVC018 59.9 58.6 96% 29.89 0.0
07 08:35 W 5 7.00 Light Rain BKN011 BKN032 OVC100 59.9 58.5 95% 29.91 0.0
Date Time (edt) Wind (mph) Vis. (mi.) Weather Sky Cond. Air Dwpt Max. Min. Relative Humidity Wind Chill (°F) Heat Index (°F) altimeter (in) sea level (mb) 1 hr 3 hr 6 hr
6 hour
Temperature (ºF) Pressure Precipitation (in)